Time;durP1;ratioP1;P1;durP2;ratioP2;P2;SDS_P1;SDS_P2;PMS_P1;PMS_P2;Temp;Humidity;BMP_temperature;BMP_pressure;BME280_temperature;BME280_humidity;BME280_pressure;Samples;Min_cycle;Max_cycle;Signal;HPM_P1;HPM_P2
2023/06/04 00:01:28;;;;;;;6.20;3.20;;;11.60;99.90;;;;;;7371045;19;20029;-67
2023/06/04 00:03:54;;;;;;;8.68;3.20;;;11.60;99.90;;;;;;7371136;19;20015;-68
2023/06/04 00:06:21;;;;;;;6.60;3.17;;;11.60;99.90;;;;;;7374996;19;20014;-67
2023/06/04 00:08:47;;;;;;;7.30;3.08;;;11.50;99.90;;;;;;7373543;19;20018;-67
2023/06/04 00:11:13;;;;;;;5.05;3.25;;;11.50;99.90;;;;;;7372642;19;20825;-67
2023/06/04 00:13:39;;;;;;;6.40;3.38;;;11.40;99.90;;;;;;7373728;19;20026;-67
2023/06/04 00:16:05;;;;;;;7.32;3.97;;;11.50;99.90;;;;;;7373915;19;20039;-67
2023/06/04 00:18:32;;;;;;;5.55;3.63;;;11.40;99.90;;;;;;7373271;19;20015;-67
2023/06/04 00:20:58;;;;;;;8.10;3.42;;;11.40;99.90;;;;;;7369568;19;20067;-68
2023/06/04 00:23:24;;;;;;;11.38;3.50;;;11.30;99.90;;;;;;7373435;19;20048;-67
2023/06/04 00:25:51;;;;;;;7.80;3.20;;;11.30;99.90;;;;;;7375469;19;20570;-67
2023/06/04 00:28:17;;;;;;;10.02;4.32;;;11.30;99.90;;;;;;7372764;19;20014;-68
2023/06/04 00:30:43;;;;;;;7.45;3.65;;;11.30;99.90;;;;;;7371785;19;20019;-68
2023/06/04 00:33:10;;;;;;;8.48;4.03;;;11.20;99.90;;;;;;7369023;19;20500;-68
2023/06/04 00:35:36;;;;;;;8.00;3.88;;;11.30;99.90;;;;;;7373652;19;20013;-62
2023/06/04 00:38:02;;;;;;;8.48;3.75;;;11.20;99.90;;;;;;7370087;19;20033;-68
2023/06/04 00:40:29;;;;;;;10.77;3.47;;;11.20;99.90;;;;;;7362455;19;20014;-68
2023/06/04 00:42:55;;;;;;;9.30;3.83;;;11.20;99.90;;;;;;7366769;19;20396;-68
2023/06/04 00:45:25;;;;;;;11.32;4.35;;;11.20;99.90;;;;;;7373167;19;20088;-68
2023/06/04 00:47:52;;;;;;;9.50;4.35;;;11.10;99.90;;;;;;7369034;19;20010;-68
2023/06/04 00:50:20;;;;;;;7.60;4.32;;;11.10;99.90;;;;;;7368270;19;20029;-68
2023/06/04 00:52:49;;;;;;;11.30;4.18;;;11.10;99.90;;;;;;7372861;19;20432;-67
2023/06/04 00:55:18;;;;;;;11.45;4.40;;;11.00;99.90;;;;;;7371770;19;20514;-68
2023/06/04 00:57:44;;;;;;;8.80;3.80;;;11.10;99.90;;;;;;7373018;19;20026;-68
2023/06/04 01:00:12;;;;;;;10.98;4.07;;;11.00;99.90;;;;;;7365400;19;20529;-62
2023/06/04 01:02:40;;;;;;;10.10;4.70;;;11.00;99.90;;;;;;7373715;19;20018;-62
2023/06/04 01:05:30;;;;;;;10.15;5.53;;;10.90;99.90;;;;;;7367043;19;20029;-68
2023/06/04 01:07:57;;;;;;;12.93;4.53;;;11.00;99.90;;;;;;7366328;19;20331;-67
2023/06/04 01:10:23;;;;;;;11.52;4.85;;;10.90;99.90;;;;;;7372671;19;20039;-67
2023/06/04 01:12:53;;;;;;;9.77;4.53;;;10.90;99.90;;;;;;7368606;19;20383;-67
2023/06/04 01:15:19;;;;;;;10.63;5.07;;;10.90;99.90;;;;;;7371166;19;20913;-67
2023/06/04 01:17:57;;;;;;;7.72;4.88;;;10.80;99.90;;;;;;7363850;19;20493;-68
2023/06/04 01:20:38;;;;;;;9.55;4.38;;;10.80;99.90;;;;;;7366350;19;20057;-68
2023/06/04 01:23:13;;;;;;;13.13;5.05;;;10.80;99.90;;;;;;7365581;19;20018;-67
2023/06/04 01:25:45;;;;;;;7.45;4.60;;;10.80;99.90;;;;;;7369242;19;20490;-67
2023/06/04 01:28:12;;;;;;;;;;;10.70;99.90;;;;;;7366880;19;20027;-67
2023/06/04 01:30:45;;;;;;;9.50;4.68;;;10.80;99.90;;;;;;7369819;19;19938;-67
2023/06/04 01:33:15;;;;;;;9.65;5.18;;;10.70;99.90;;;;;;7365630;19;20033;-67
2023/06/04 01:35:41;;;;;;;11.88;5.05;;;10.70;99.90;;;;;;7370106;19;20010;-67
2023/06/04 01:38:08;;;;;;;11.40;5.10;;;10.70;99.90;;;;;;7367888;19;20022;-67
2023/06/04 01:40:34;;;;;;;8.20;5.43;;;10.70;99.90;;;;;;7367792;19;20018;-67
2023/06/04 01:43:01;;;;;;;9.65;4.93;;;10.60;99.90;;;;;;7369395;19;20015;-68
2023/06/04 01:45:29;;;;;;;12.55;5.68;;;10.60;99.90;;;;;;7369818;19;20035;-68
2023/06/04 01:47:56;;;;;;;14.07;5.57;;;10.60;99.90;;;;;;7371952;19;20035;-68
2023/06/04 01:50:24;;;;;;;10.98;5.90;;;10.60;99.90;;;;;;7368314;19;20022;-67
2023/06/04 01:52:50;;;;;;;12.82;4.57;;;10.50;99.90;;;;;;7370297;19;20018;-68
2023/06/04 01:55:17;;;;;;;11.48;5.80;;;10.50;99.90;;;;;;7369629;19;20643;-68
2023/06/04 01:57:46;;;;;;;9.10;5.82;;;10.50;99.90;;;;;;7370386;19;20757;-67
2023/06/04 02:00:12;;;;;;;14.75;5.65;;;10.50;99.90;;;;;;7362509;19;20074;-68
2023/06/04 02:02:48;;;;;;;10.70;5.18;;;10.40;99.90;;;;;;7372012;19;20026;-68
2023/06/04 02:05:15;;;;;;;12.30;6.28;;;10.40;99.90;;;;;;7370436;19;20037;-68
2023/06/04 02:07:45;;;;;;;12.88;5.60;;;10.40;99.90;;;;;;7371698;19;20011;-68
2023/06/04 02:10:15;;;;;;;10.82;5.40;;;10.40;99.90;;;;;;7364038;19;20025;-61
2023/06/04 02:12:53;;;;;;;14.13;5.70;;;10.40;99.90;;;;;;7370647;19;20033;-61
2023/06/04 02:15:19;;;;;;;16.02;6.80;;;10.30;99.90;;;;;;7370282;19;20474;-62
2023/06/04 02:17:47;;;;;;;9.68;5.95;;;10.20;99.90;;;;;;7368493;19;20027;-62
2023/06/04 02:20:13;;;;;;;12.98;6.22;;;10.20;99.90;;;;;;7364723;19;20022;-62
2023/06/04 02:22:39;;;;;;;9.63;5.90;;;10.20;99.90;;;;;;7369436;19;20502;-61
2023/06/04 02:25:08;;;;;;;13.85;6.72;;;10.10;99.90;;;;;;7375160;19;20022;-61
2023/06/04 02:27:35;;;;;;;11.52;6.47;;;10.10;99.90;;;;;;7375201;19;20026;-60
2023/06/04 02:30:02;;;;;;;11.13;6.00;;;10.10;99.90;;;;;;7375182;19;20386;-61
2023/06/04 02:32:29;;;;;;;11.80;6.15;;;10.10;99.90;;;;;;7376426;19;20766;-62
2023/06/04 02:34:56;;;;;;;13.15;7.07;;;10.00;99.90;;;;;;7374381;19;20011;-62
2023/06/04 02:37:22;;;;;;;13.48;7.15;;;10.00;99.90;;;;;;7376853;19;20039;-59
2023/06/04 02:39:49;;;;;;;11.30;6.05;;;9.90;99.90;;;;;;7374222;19;20082;-60
2023/06/04 02:42:15;;;;;;;13.65;6.88;;;9.90;99.90;;;;;;7371219;19;20030;-61
2023/06/04 02:44:41;;;;;;;11.90;6.57;;;9.90;99.90;;;;;;7377945;19;20010;-61
2023/06/04 02:47:08;;;;;;;12.73;7.60;;;9.80;99.90;;;;;;7372126;19;20029;-61
2023/06/04 02:49:34;;;;;;;13.80;7.68;;;9.80;99.90;;;;;;7378057;19;20029;-61
2023/06/04 02:52:00;;;;;;;12.45;7.53;;;9.80;99.90;;;;;;7373589;19;20018;-61
2023/06/04 02:54:26;;;;;;;16.23;7.10;;;9.80;99.90;;;;;;7377616;19;20025;-68
2023/06/04 02:56:53;;;;;;;15.43;7.90;;;9.70;99.90;;;;;;7378907;19;20924;-68
2023/06/04 02:59:19;;;;;;;14.63;7.65;;;9.70;99.90;;;;;;7373731;19;20018;-67
2023/06/04 03:01:45;;;;;;;12.07;7.05;;;9.70;99.90;;;;;;7374590;19;20102;-61
2023/06/04 03:04:15;;;;;;;13.57;7.53;;;9.70;99.90;;;;;;7373523;19;20046;-61
2023/06/04 03:06:44;;;;;;;13.02;7.55;;;9.70;99.90;;;;;;7377261;19;20036;-61
2023/06/04 03:09:11;;;;;;;11.25;7.68;;;9.60;99.90;;;;;;7374760;19;20040;-61
2023/06/04 03:11:38;;;;;;;11.15;7.15;;;9.70;99.90;;;;;;7376719;19;20026;-60
2023/06/04 03:14:05;;;;;;;15.52;8.05;;;9.60;99.90;;;;;;7370902;19;20054;-61
2023/06/04 03:16:32;;;;;;;14.50;8.45;;;9.60;99.90;;;;;;7374625;19;20018;-61
2023/06/04 03:18:58;;;;;;;12.20;7.47;;;9.60;99.90;;;;;;7371553;19;20038;-67
2023/06/04 03:21:25;;;;;;;14.65;8.20;;;9.60;99.90;;;;;;7372942;19;20026;-67
2023/06/04 03:23:52;;;;;;;11.88;8.45;;;9.60;99.90;;;;;;7373900;19;20515;-67
2023/06/04 03:26:18;;;;;;;14.82;8.80;;;9.60;99.90;;;;;;7372301;19;20890;-67
2023/06/04 03:28:44;;;;;;;13.75;8.20;;;9.60;99.90;;;;;;7372691;19;20582;-67
2023/06/04 03:31:14;;;;;;;17.17;8.95;;;9.60;99.90;;;;;;7375782;19;20022;-68
2023/06/04 03:33:41;;;;;;;16.73;8.45;;;9.60;99.90;;;;;;7373790;19;20014;-67
2023/06/04 03:36:08;;;;;;;14.90;8.35;;;9.60;99.90;;;;;;7372602;19;20715;-67
2023/06/04 03:38:35;;;;;;;13.32;8.32;;;9.60;99.90;;;;;;7371342;19;20025;-67
2023/06/04 03:41:02;;;;;;;15.23;8.40;;;9.60;99.90;;;;;;7371701;19;20014;-67
2023/06/04 03:43:28;;;;;;;14.95;8.45;;;9.70;99.90;;;;;;7374478;19;20061;-67
2023/06/04 03:45:59;;;;;;;21.57;9.77;;;9.60;99.90;;;;;;7373596;19;20022;-67
2023/06/04 03:48:26;;;;;;;19.30;9.07;;;9.60;99.90;;;;;;7372601;19;20018;-67
2023/06/04 03:50:53;;;;;;;16.17;9.05;;;9.60;99.90;;;;;;7374456;19;20006;-67
2023/06/04 03:53:20;;;;;;;15.20;8.88;;;9.70;99.90;;;;;;7373876;19;20018;-67
2023/06/04 03:55:47;;;;;;;15.73;9.52;;;9.70;99.90;;;;;;7372723;19;20023;-67
2023/06/04 03:58:14;;;;;;;17.67;9.20;;;9.70;99.90;;;;;;7370994;19;20019;-67
2023/06/04 04:00:47;;;;;;;14.85;8.52;;;9.70;99.90;;;;;;7374166;19;20015;-66
2023/06/04 04:03:14;;;;;;;13.88;8.93;;;9.70;99.90;;;;;;7371171;19;20506;-61
2023/06/04 04:05:40;;;;;;;13.15;8.40;;;9.80;99.90;;;;;;7375985;19;20026;-67
2023/06/04 04:08:08;;;;;;;14.80;8.55;;;9.80;99.90;;;;;;7366442;19;20032;-61
2023/06/04 04:10:35;;;;;;;20.90;8.82;;;9.80;99.90;;;;;;7376029;19;20019;-61
2023/06/04 04:13:03;;;;;;;15.35;9.45;;;9.80;99.90;;;;;;7370444;19;20018;-61
2023/06/04 04:15:32;;;;;;;15.80;9.55;;;9.80;99.90;;;;;;7374008;19;20018;-61
2023/06/04 04:18:01;;;;;;;13.73;8.70;;;9.90;99.90;;;;;;7370293;19;20022;-60
2023/06/04 04:20:28;;;;;;;16.15;9.07;;;9.90;99.90;;;;;;7374027;19;20078;-61
2023/06/04 04:22:59;;;;;;;27.33;9.35;;;10.00;99.90;;;;;;7372684;19;20021;-61
2023/06/04 04:25:27;;;;;;;14.85;9.65;;;10.00;99.90;;;;;;7375285;19;20035;-61
2023/06/04 04:27:56;;;;;;;13.75;8.52;;;10.10;99.90;;;;;;7368122;19;20022;-60
2023/06/04 04:30:24;;;;;;;15.13;8.95;;;10.10;99.90;;;;;;7371815;19;20035;-60
2023/06/04 04:32:52;;;;;;;13.18;9.10;;;10.10;99.90;;;;;;7373316;19;20106;-61
2023/06/04 04:35:25;;;;;;;15.35;9.15;;;10.20;99.90;;;;;;7369328;19;20018;-61
2023/06/04 04:37:57;;;;;;;14.25;8.63;;;10.30;99.90;;;;;;7362836;19;20020;-61
2023/06/04 04:40:25;;;;;;;13.43;9.43;;;10.30;99.90;;;;;;7369951;19;20486;-61
2023/06/04 04:42:53;;;;;;;17.35;9.68;;;10.40;99.90;;;;;;7373078;19;20026;-61
2023/06/04 04:45:20;;;;;;;16.85;9.20;;;10.50;99.90;;;;;;7367115;19;20619;-61
2023/06/04 04:47:50;;;;;;;14.60;9.07;;;10.50;99.90;;;;;;7367580;19;20037;-61
2023/06/04 04:50:17;;;;;;;14.38;8.63;;;10.60;99.90;;;;;;7368617;19;20656;-61
2023/06/04 04:52:43;;;;;;;12.68;8.90;;;10.70;99.90;;;;;;7374430;19;20683;-61
2023/06/04 04:55:11;;;;;;;15.88;9.23;;;10.80;99.90;;;;;;7365273;19;20030;-60
2023/06/04 04:57:38;;;;;;;16.45;9.32;;;10.90;99.90;;;;;;7371494;19;20014;-60
2023/06/04 05:00:07;;;;;;;16.85;9.63;;;11.00;99.90;;;;;;7367705;19;20018;-61
2023/06/04 05:02:36;;;;;;;14.60;9.43;;;11.10;99.90;;;;;;7369768;19;20018;-60
2023/06/04 05:05:03;;;;;;;13.98;9.50;;;11.30;99.90;;;;;;7368936;19;20581;-60
2023/06/04 05:07:30;;;;;;;15.95;8.70;;;11.50;99.90;;;;;;7373130;19;20024;-60
2023/06/04 05:09:58;;;;;;;11.80;7.45;;;11.80;99.90;;;;;;7368923;19;20043;-62
2023/06/04 05:12:26;;;;;;;14.73;7.90;;;12.20;99.90;;;;;;7372456;19;20022;-61
2023/06/04 05:14:53;;;;;;;13.05;7.60;;;12.40;99.90;;;;;;7364067;19;20035;-61
2023/06/04 05:17:29;;;;;;;12.35;7.95;;;12.80;99.90;;;;;;7369378;19;20022;-62
2023/06/04 05:20:11;;;;;;;12.05;7.53;;;13.00;99.90;;;;;;7369040;19;20029;-61
2023/06/04 05:22:39;;;;;;;13.55;6.80;;;13.20;99.90;;;;;;7370910;19;20014;-68
2023/06/04 05:25:08;;;;;;;11.98;7.07;;;13.30;99.90;;;;;;7370994;19;20022;-61
2023/06/04 05:27:35;;;;;;;16.92;8.18;;;13.50;99.90;;;;;;7371000;19;20402;-61
2023/06/04 05:30:05;;;;;;;14.48;7.43;;;13.70;99.90;;;;;;7369558;19;20033;-61
2023/06/04 05:32:32;;;;;;;10.07;6.50;;;13.90;99.90;;;;;;7373207;19;20022;-61
2023/06/04 05:34:59;;;;;;;11.77;6.47;;;14.10;99.90;;;;;;7370757;19;20038;-61
2023/06/04 05:37:30;;;;;;;10.15;6.35;;;14.00;99.90;;;;;;7371420;19;20015;-62
2023/06/04 05:39:58;;;;;;;14.35;6.28;;;14.30;99.90;;;;;;7368415;19;20014;-68
2023/06/04 05:42:25;;;;;;;11.20;6.00;;;14.60;99.90;;;;;;7372159;19;20059;-68
2023/06/04 05:44:51;;;;;;;12.93;6.72;;;14.60;99.90;;;;;;7373822;19;20025;-68
2023/06/04 05:47:19;;;;;;;14.73;6.57;;;14.70;99.90;;;;;;7369488;19;20086;-68
2023/06/04 05:49:46;;;;;;;11.07;6.60;;;14.60;99.90;;;;;;7369373;19;20029;-68
2023/06/04 05:52:13;;;;;;;11.70;6.68;;;14.90;99.90;;;;;;7368142;19;20026;-69
2023/06/04 05:54:42;;;;;;;13.93;6.60;;;14.80;99.90;;;;;;7369520;19;20018;-68
2023/06/04 05:57:08;;;;;;;11.82;6.72;;;14.90;99.90;;;;;;7367937;19;20054;-69
2023/06/04 05:59:39;;;;;;;11.40;6.15;;;15.00;99.90;;;;;;7368478;19;20010;-61
2023/06/04 06:02:09;;;;;;;11.15;6.63;;;15.20;99.90;;;;;;7370507;19;20531;-62
2023/06/04 06:04:37;;;;;;;10.65;6.55;;;15.20;99.90;;;;;;7367850;19;20043;-61
2023/06/04 06:07:04;;;;;;;12.55;6.70;;;15.50;99.90;;;;;;7370237;19;20865;-62
2023/06/04 06:09:31;;;;;;;12.43;6.18;;;15.50;99.90;;;;;;7366359;19;20033;-62
2023/06/04 06:11:58;;;;;;;13.55;6.15;;;15.80;99.90;;;;;;7366457;19;20027;-62
2023/06/04 06:14:24;;;;;;;11.65;5.10;;;15.90;99.90;;;;;;7366794;19;20490;-62
2023/06/04 06:16:52;;;;;;;10.70;5.97;;;16.00;99.90;;;;;;7366128;19;20019;-62
2023/06/04 06:19:19;;;;;;;10.70;6.30;;;16.20;99.90;;;;;;7366405;19;20021;-62
2023/06/04 06:21:46;;;;;;;12.45;6.15;;;16.00;99.90;;;;;;7367543;19;20015;-62
2023/06/04 06:24:13;;;;;;;8.05;4.65;;;16.40;99.90;;;;;;7370380;19;20781;-62
2023/06/04 06:26:39;;;;;;;11.55;5.40;;;16.60;99.90;;;;;;7371852;19;20973;-60
2023/06/04 06:29:07;;;;;;;12.00;5.22;;;16.80;99.90;;;;;;7371532;19;20019;-66
2023/06/04 06:31:34;;;;;;;8.02;4.20;;;16.80;99.90;;;;;;7368501;19;20462;-67
2023/06/04 06:34:00;;;;;;;8.77;4.93;;;16.90;99.90;;;;;;7371304;19;20038;-66
2023/06/04 06:36:28;;;;;;;14.55;7.88;;;17.10;99.90;;;;;;7371284;19;21084;-66
2023/06/04 06:38:54;;;;;;;15.93;10.23;;;17.30;99.90;;;;;;7371975;19;20015;-66
2023/06/04 06:41:22;;;;;;;8.88;3.88;;;17.40;99.90;;;;;;7366343;19;20389;-67
2023/06/04 06:43:48;;;;;;;12.77;9.70;;;17.20;99.90;;;;;;7373580;19;20026;-76
2023/06/04 06:46:14;;;;;;;11.23;3.90;;;17.60;99.90;;;;;;7367048;19;20474;-67
2023/06/04 06:48:44;;;;;;;7.32;3.75;;;17.40;99.90;;;;;;7368380;19;20907;-67
2023/06/04 06:51:11;;;;;;;9.00;3.92;;;17.30;99.90;;;;;;7367114;19;20064;-61
2023/06/04 06:53:39;;;;;;;8.55;4.53;;;17.80;99.90;;;;;;7367045;19;20022;-61
2023/06/04 06:56:06;;;;;;;11.30;6.35;;;17.70;99.90;;;;;;7363271;19;20112;-61
2023/06/04 06:58:33;;;;;;;10.32;4.70;;;18.10;99.90;;;;;;7370309;19;20026;-67
2023/06/04 07:00:59;;;;;;;8.60;5.22;;;18.20;99.90;;;;;;7365164;19;20904;-67
2023/06/04 07:03:26;;;;;;;8.35;4.53;;;18.40;99.90;;;;;;7367626;19;20018;-67
2023/06/04 07:05:53;;;;;;;8.10;3.20;;;18.60;99.90;;;;;;7364736;19;20490;-67
2023/06/04 07:08:21;;;;;;;8.88;4.20;;;18.60;99.90;;;;;;7362580;19;20387;-67
2023/06/04 07:10:47;;;;;;;14.15;9.75;;;18.60;99.90;;;;;;7375310;19;20377;-67
2023/06/04 07:13:13;;;;;;;12.55;5.80;;;18.80;99.90;;;;;;7369449;19;20023;-67
2023/06/04 07:15:39;;;;;;;6.80;2.97;;;19.10;99.90;;;;;;7374462;19;20937;-61
2023/06/04 07:18:06;;;;;;;9.80;3.15;;;19.10;99.90;;;;;;7372002;19;20537;-63
2023/06/04 07:20:32;;;;;;;8.88;3.72;;;19.30;99.90;;;;;;7367837;19;20949;-61
2023/06/04 07:22:58;;;;;;;9.23;3.70;;;19.50;99.90;;;;;;7369100;19;20022;-60
2023/06/04 07:25:27;;;;;;;7.93;2.90;;;19.70;99.90;;;;;;7370215;19;20373;-61
2023/06/04 07:28:03;;;;;;;7.65;3.47;;;19.80;99.90;;;;;;7371499;19;20090;-60
2023/06/04 07:30:31;;;;;;;9.63;5.55;;;20.00;99.90;;;;;;7369415;19;20039;-61
2023/06/04 07:32:58;;;;;;;13.85;10.25;;;20.00;99.90;;;;;;7368708;19;20018;-61
2023/06/04 07:35:24;;;;;;;8.35;2.35;;;20.20;99.90;;;;;;7369746;19;20023;-62
2023/06/04 07:37:51;;;;;;;6.50;2.90;;;20.30;99.90;;;;;;7368333;19;20018;-62
2023/06/04 07:40:17;;;;;;;7.75;2.95;;;20.20;99.90;;;;;;7366191;19;20025;-61
2023/06/04 07:42:46;;;;;;;6.95;2.85;;;20.40;99.90;;;;;;7372365;19;20020;-61
2023/06/04 07:45:13;;;;;;;10.18;7.00;;;20.30;99.90;;;;;;7365881;19;20771;-61
2023/06/04 07:47:39;;;;;;;8.93;6.53;;;20.50;99.30;;;;;;7371304;19;20043;-62
2023/06/04 07:50:06;;;;;;;6.43;2.25;;;20.70;96.30;;;;;;7369365;19;20509;-67
2023/06/04 07:52:32;;;;;;;6.43;2.10;;;20.80;94.10;;;;;;7370570;19;20022;-68
2023/06/04 07:55:00;;;;;;;7.65;3.65;;;20.90;92.40;;;;;;7373356;19;20019;-67
2023/06/04 07:57:27;;;;;;;6.30;2.38;;;21.10;93.30;;;;;;7369421;19;20015;-63
2023/06/04 07:59:53;;;;;;;25.50;20.08;;;21.10;91.40;;;;;;7366940;19;20255;-67
2023/06/04 08:02:19;;;;;;;7.15;3.60;;;21.10;91.60;;;;;;7366892;19;20022;-61
2023/06/04 08:04:48;;;;;;;8.15;2.78;;;21.40;91.10;;;;;;7372957;19;20019;-62
2023/06/04 08:07:15;;;;;;;8.63;2.92;;;21.50;90.10;;;;;;7370338;19;20721;-61
2023/06/04 08:09:41;;;;;;;12.95;9.95;;;21.70;91.00;;;;;;7369453;19;20019;-61
2023/06/04 08:12:07;;;;;;;7.03;2.97;;;21.40;91.40;;;;;;7368920;19;20058;-62
2023/06/04 08:14:34;;;;;;;11.15;5.20;;;21.80;90.80;;;;;;7370293;19;20026;-63
2023/06/04 08:17:03;;;;;;;9.27;5.65;;;21.90;87.40;;;;;;7367956;19;20039;-62
2023/06/04 08:19:35;;;;;;;10.20;6.93;;;22.10;82.20;;;;;;7368133;19;20018;-61
2023/06/04 08:22:13;;;;;;;6.38;2.42;;;22.00;75.50;;;;;;7367423;19;20022;-62
2023/06/04 08:24:49;;;;;;;6.10;2.15;;;22.30;72.90;;;;;;7367746;19;20015;-61
2023/06/04 08:27:37;;;;;;;9.32;7.00;;;22.70;73.40;;;;;;7364961;19;20030;-61
2023/06/04 08:30:16;;;;;;;5.78;2.72;;;22.70;71.30;;;;;;7369232;19;20636;-61
2023/06/04 08:33:02;;;;;;;5.68;3.17;;;22.70;70.60;;;;;;7365347;19;20741;-67
2023/06/04 08:35:34;;;;;;;7.07;4.85;;;22.70;68.80;;;;;;7365688;19;20777;-67
2023/06/04 08:38:00;;;;;;;12.75;7.82;;;22.80;65.90;;;;;;7369157;19;20014;-65
2023/06/04 08:40:27;;;;;;;5.78;2.00;;;23.00;65.50;;;;;;7367269;19;20043;-66
2023/06/04 08:42:58;;;;;;;7.95;4.50;;;23.00;64.40;;;;;;7369002;19;20022;-66
2023/06/04 08:45:25;;;;;;;8.85;3.53;;;23.40;61.70;;;;;;7369392;19;20023;-66
2023/06/04 08:47:53;;;;;;;5.45;1.80;;;23.40;61.30;;;;;;7371058;19;20022;-66
2023/06/04 08:50:23;;;;;;;11.38;9.07;;;23.70;57.70;;;;;;7367479;19;20754;-60
2023/06/04 08:52:55;;;;;;;5.90;2.25;;;23.90;58.50;;;;;;7364712;19;20022;-62
2023/06/04 08:55:22;;;;;;;5.43;1.80;;;24.00;57.30;;;;;;7365360;19;20014;-61
2023/06/04 08:57:53;;;;;;;4.93;2.75;;;23.80;54.90;;;;;;7369997;19;20042;-61
2023/06/04 09:00:19;;;;;;;9.88;7.40;;;24.10;51.30;;;;;;7367487;19;20046;-60
2023/06/04 09:02:47;;;;;;;11.73;9.23;;;24.10;52.20;;;;;;7367385;19;20639;-60
2023/06/04 09:05:21;;;;;;;5.38;1.92;;;24.60;54.30;;;;;;7369774;19;20281;-60
2023/06/04 09:07:49;;;;;;;8.27;3.60;;;24.70;51.90;;;;;;7368865;19;20785;-60
2023/06/04 09:10:18;;;;;;;6.93;2.25;;;24.90;52.20;;;;;;7366884;19;20015;-61
2023/06/04 09:12:47;;;;;;;12.07;6.05;;;24.60;54.10;;;;;;7366779;19;20050;-61
2023/06/04 09:15:14;;;;;;;9.90;5.97;;;24.50;51.60;;;;;;7360254;19;20017;-60
2023/06/04 09:17:40;;;;;;;6.57;2.20;;;24.70;50.30;;;;;;7366382;19;20018;-61
2023/06/04 09:20:08;;;;;;;5.00;2.03;;;25.00;51.40;;;;;;7363635;19;20615;-60
2023/06/04 09:22:36;;;;;;;4.18;1.50;;;25.30;51.40;;;;;;7366276;19;20056;-60
2023/06/04 09:25:09;;;;;;;5.10;2.88;;;25.30;50.40;;;;;;7368613;19;20480;-60
2023/06/04 09:27:40;;;;;;;7.72;2.58;;;25.50;49.60;;;;;;7368440;19;20052;-60
2023/06/04 09:30:09;;;;;;;5.57;1.98;;;25.70;48.40;;;;;;7369246;19;20798;-60
2023/06/04 09:32:35;;;;;;;4.32;1.50;;;25.70;48.60;;;;;;7359166;19;20021;-60
2023/06/04 09:35:28;;;;;;;11.23;7.60;;;25.50;48.20;;;;;;7366056;19;20036;-59
2023/06/04 09:37:55;;;;;;;5.70;1.80;;;25.90;47.50;;;;;;7365897;19;20691;-60
2023/06/04 09:40:22;;;;;;;4.55;1.30;;;25.70;47.40;;;;;;7366766;19;20029;-60
2023/06/04 09:42:54;;;;;;;6.55;3.63;;;25.80;47.50;;;;;;7365034;19;20507;-66
2023/06/04 09:45:32;;;;;;;10.07;8.38;;;26.10;47.40;;;;;;7365690;19;20028;-60
2023/06/04 09:48:03;;;;;;;11.30;9.82;;;26.30;47.40;;;;;;7363489;19;20862;-67
2023/06/04 09:50:34;;;;;;;9.70;1.80;;;26.20;47.20;;;;;;7365718;19;20560;-67
2023/06/04 09:53:02;;;;;;;8.88;6.63;;;25.80;46.20;;;;;;7363443;19;20023;-66
2023/06/04 09:55:28;;;;;;;4.13;1.77;;;26.00;46.60;;;;;;7370397;19;20018;-67
2023/06/04 09:57:54;;;;;;;6.90;1.98;;;26.40;47.60;;;;;;7368935;19;20082;-61
2023/06/04 10:00:23;;;;;;;10.73;8.35;;;26.30;47.60;;;;;;7364520;19;20018;-62
2023/06/04 10:02:57;;;;;;;8.88;5.20;;;26.70;47.70;;;;;;7367038;19;20061;-62
2023/06/04 10:05:25;;;;;;;4.80;1.45;;;26.60;46.70;;;;;;7365489;19;20018;-66
2023/06/04 10:07:52;;;;;;;4.07;1.48;;;27.10;47.00;;;;;;7366546;19;20081;-66
2023/06/04 10:10:21;;;;;;;13.63;12.00;;;26.70;46.00;;;;;;7354706;19;20023;-66
2023/06/04 10:12:54;;;;;;;3.38;1.50;;;27.00;46.70;;;;;;7358238;19;20106;-67
2023/06/04 10:15:22;;;;;;;9.18;2.78;;;26.80;46.50;;;;;;7364805;19;20650;-66
2023/06/04 10:17:52;;;;;;;9.88;7.65;;;27.20;45.80;;;;;;7358718;19;20055;-67
2023/06/04 10:20:20;;;;;;;7.20;5.32;;;27.10;44.50;;;;;;7364278;19;20015;-60
2023/06/04 10:22:48;;;;;;;12.68;9.50;;;27.20;45.20;;;;;;7363157;19;20038;-67
2023/06/04 10:25:16;;;;;;;8.02;4.18;;;27.30;45.40;;;;;;7366672;19;20037;-66
2023/06/04 10:27:43;;;;;;;4.80;1.50;;;27.60;45.40;;;;;;7365238;19;20041;-66
2023/06/04 10:30:10;;;;;;;4.53;1.60;;;27.70;44.00;;;;;;7365805;19;20807;-66
2023/06/04 10:32:37;;;;;;;12.57;11.27;;;27.50;44.40;;;;;;7364779;19;20784;-66
2023/06/04 10:35:07;;;;;;;10.50;7.05;;;27.40;44.40;;;;;;7363802;19;20116;-67
2023/06/04 10:37:34;;;;;;;15.95;14.40;;;27.90;44.40;;;;;;7360995;19;20054;-67
2023/06/04 10:40:00;;;;;;;6.82;1.90;;;27.90;43.60;;;;;;7361538;19;20039;-67
2023/06/04 10:42:38;;;;;;;10.48;9.15;;;27.60;42.50;;;;;;7358502;19;20029;-69
2023/06/04 10:45:07;;;;;;;30.48;27.45;;;27.80;44.00;;;;;;7365188;19;20582;-69
2023/06/04 10:47:37;;;;;;;7.63;5.55;;;27.90;43.10;;;;;;7377668;19;20019;-69
2023/06/04 10:50:13;;;;;;;16.88;13.65;;;27.90;42.70;;;;;;7377137;19;20015;-64
2023/06/04 10:52:51;;;;;;;23.48;21.08;;;27.60;42.20;;;;;;7373705;19;20033;-65
2023/06/04 10:55:18;;;;;;;6.03;2.78;;;27.80;43.20;;;;;;7368966;19;20370;-65
2023/06/04 10:57:58;;;;;;;4.53;1.73;;;27.90;42.70;;;;;;7370492;19;20022;-65
2023/06/04 11:00:41;;;;;;;5.85;2.25;;;28.20;43.40;;;;;;7366101;19;20781;-65
2023/06/04 11:03:11;;;;;;;5.93;1.90;;;28.20;41.30;;;;;;7370939;19;20039;-65
2023/06/04 11:05:43;;;;;;;3.38;1.42;;;28.50;42.60;;;;;;7372326;19;20035;-65
2023/06/04 11:08:14;;;;;;;7.90;5.55;;;28.70;41.90;;;;;;7373785;19;20768;-65
2023/06/04 11:10:41;;;;;;;;;;;28.60;41.80;;;;;;7367752;19;20022;-65
2023/06/04 11:13:08;;;;;;;3.88;2.17;;;28.30;39.40;;;;;;7366046;19;19930;-64
2023/06/04 11:15:38;;;;;;;8.43;5.97;;;28.40;42.00;;;;;;7368669;19;20620;-64
2023/06/04 11:18:05;;;;;;;3.65;1.33;;;28.40;41.90;;;;;;7365499;19;20023;-64
2023/06/04 11:20:31;;;;;;;4.72;3.42;;;28.40;41.30;;;;;;7366423;19;20022;-64
2023/06/04 11:23:03;;;;;;;7.88;6.00;;;28.50;41.20;;;;;;7369669;19;20029;-65
2023/06/04 11:25:31;;;;;;;5.35;1.50;;;28.60;40.50;;;;;;7369860;19;20018;-64
2023/06/04 11:27:57;;;;;;;4.50;2.40;;;28.10;40.00;;;;;;7370154;19;20019;-65
2023/06/04 11:30:25;;;;;;;4.22;2.13;;;28.10;40.70;;;;;;7371392;19;20066;-70
2023/06/04 11:33:04;;;;;;;4.03;1.83;;;28.30;41.40;;;;;;7379940;19;20015;-68
2023/06/04 11:35:39;;;;;;;17.33;15.70;;;28.20;41.10;;;;;;7376634;19;20021;-67
2023/06/04 11:38:05;;;;;;;8.15;4.47;;;28.30;40.50;;;;;;7379101;19;20661;-62
2023/06/04 11:40:32;;;;;;;4.93;2.90;;;28.20;39.10;;;;;;7367344;19;20458;-62
2023/06/04 11:42:58;;;;;;;8.75;3.55;;;28.00;39.00;;;;;;7369543;19;20025;-62
2023/06/04 11:45:26;;;;;;;4.53;2.40;;;27.90;39.20;;;;;;7366295;19;20387;-64
2023/06/04 11:47:56;;;;;;;7.20;4.40;;;27.90;39.00;;;;;;7367591;19;20140;-64
2023/06/04 11:50:27;;;;;;;4.35;1.55;;;27.80;39.40;;;;;;7366200;19;20362;-64
2023/06/04 11:52:54;;;;;;;5.82;2.47;;;27.60;38.70;;;;;;7369981;19;20030;-62
2023/06/04 11:55:21;;;;;;;5.82;2.58;;;27.60;39.40;;;;;;7367843;19;20930;-61
2023/06/04 11:57:51;;;;;;;4.13;1.63;;;27.50;40.20;;;;;;7368418;19;20025;-64
2023/06/04 12:00:18;;;;;;;8.07;2.42;;;27.80;40.10;;;;;;7369585;19;20027;-62
2023/06/04 12:03:03;;;;;;;5.88;3.15;;;27.80;40.30;;;;;;7368326;19;20029;-62
2023/06/04 12:05:31;;;;;;;5.05;2.10;;;28.00;39.70;;;;;;7370002;19;20025;-62
2023/06/04 12:08:09;;;;;;;5.97;2.13;;;28.20;40.40;;;;;;7374561;19;20026;-71
2023/06/04 12:10:40;;;;;;;3.92;1.30;;;28.20;40.00;;;;;;7369461;19;20040;-69
2023/06/04 12:13:07;;;;;;;6.68;3.38;;;28.40;39.80;;;;;;7372638;19;20402;-72
2023/06/04 12:15:33;;;;;;;7.20;4.88;;;28.50;40.40;;;;;;7374200;19;20015;-70
2023/06/04 12:18:00;;;;;;;4.70;3.45;;;28.50;40.00;;;;;;7369772;19;20042;-70
2023/06/04 12:20:36;;;;;;;34.22;30.88;;;28.60;39.40;;;;;;7367308;19;20019;-70
2023/06/04 12:23:04;;;;;;;14.32;12.85;;;28.30;39.30;;;;;;7367073;19;21073;-70
2023/06/04 12:25:31;;;;;;;16.33;14.63;;;28.20;40.00;;;;;;7365613;19;20386;-70
2023/06/04 12:27:57;;;;;;;4.53;2.78;;;28.20;40.40;;;;;;7364932;19;20524;-69
2023/06/04 12:30:34;;;;;;;4.85;3.45;;;28.00;40.20;;;;;;7363291;19;20763;-70
2023/06/04 12:33:00;;;;;;;6.45;1.92;;;28.20;40.50;;;;;;7369910;19;20837;-70
2023/06/04 12:35:26;;;;;;;11.52;9.70;;;28.60;40.80;;;;;;7364913;19;20752;-70
2023/06/04 12:37:53;;;;;;;6.03;1.50;;;28.30;40.30;;;;;;7365118;19;20025;-70
2023/06/04 12:40:22;;;;;;;4.95;1.95;;;28.30;40.20;;;;;;7358916;19;20623;-70
2023/06/04 12:42:53;;;;;;;9.05;6.68;;;28.60;40.00;;;;;;7366903;19;20015;-70
2023/06/04 12:45:19;;;;;;;6.88;5.57;;;28.60;39.90;;;;;;7366459;19;20018;-69
2023/06/04 12:47:46;;;;;;;5.15;1.70;;;28.80;39.80;;;;;;7367594;19;20466;-68
2023/06/04 12:50:14;;;;;;;5.90;1.98;;;28.90;39.50;;;;;;7364038;19;20041;-68